createdAt,value
2018-05-12T00:02:28.005Z,17.40
2018-05-12T00:04:59.014Z,17.33
2018-05-12T00:07:29.973Z,17.40
2018-05-12T00:10:00.995Z,17.17
2018-05-12T00:12:31.988Z,16.53
2018-05-12T00:15:03.018Z,17.37
2018-05-12T00:17:34.008Z,16.87
2018-05-12T00:20:05.070Z,17.37
2018-05-12T00:22:36.030Z,17.67
2018-05-12T00:25:07.033Z,17.10
2018-05-12T00:27:38.037Z,18.13
2018-05-12T00:30:09.047Z,18.90
2018-05-12T00:32:40.058Z,19.63
2018-05-12T00:35:11.072Z,18.80
2018-05-12T00:37:42.113Z,19.53
2018-05-12T00:40:13.122Z,20.13
2018-05-12T00:42:44.089Z,18.80
2018-05-12T00:45:15.072Z,19.20
2018-05-12T00:47:46.073Z,19.33
2018-05-12T00:50:17.039Z,18.97
2018-05-12T00:52:48.003Z,18.43
2018-05-12T00:55:18.968Z,19.90
2018-05-12T00:57:49.996Z,19.07
2018-05-12T01:00:20.950Z,20.37
2018-05-12T01:02:51.963Z,20.47
2018-05-12T01:05:22.933Z,19.33
2018-05-12T01:07:53.917Z,21.17
2018-05-12T01:10:24.959Z,19.87
2018-05-12T01:12:55.946Z,21.07
2018-05-12T01:15:26.986Z,20.60
2018-05-12T01:17:57.958Z,20.53
2018-05-12T01:20:28.929Z,19.80
2018-05-12T01:22:59.894Z,19.73
2018-05-12T01:25:30.861Z,20.40
2018-05-12T01:28:01.834Z,19.60
2018-05-12T01:30:32.813Z,21.03
2018-05-12T01:33:03.814Z,19.77
2018-05-12T01:35:34.792Z,19.97
2018-05-12T01:38:05.786Z,22.30
2018-05-12T01:40:36.762Z,20.63
2018-05-12T01:43:07.748Z,21.57
2018-05-12T01:45:38.760Z,21.43
2018-05-12T01:48:09.784Z,20.20
2018-05-12T01:50:40.792Z,21.90
2018-05-12T01:53:11.814Z,21.97
2018-05-12T01:55:42.854Z,21.80
2018-05-12T01:58:13.873Z,22.77
2018-05-12T02:00:44.845Z,22.00
2018-05-12T02:03:15.859Z,21.67
2018-05-12T02:05:46.856Z,22.67
2018-05-12T02:08:17.879Z,22.37
2018-05-12T02:10:48.866Z,22.27
2018-05-12T02:13:19.883Z,22.87
2018-05-12T02:15:50.877Z,21.47
2018-05-12T02:18:21.809Z,22.47
2018-05-12T02:20:52.794Z,22.80
2018-05-12T02:23:23.798Z,24.07
2018-05-12T02:25:54.811Z,23.77
2018-05-12T02:28:25.774Z,23.13
2018-05-12T02:30:56.813Z,24.53
2018-05-12T02:33:27.799Z,24.70
2018-05-12T02:35:58.802Z,23.97
2018-05-12T02:38:29.748Z,25.53
2018-05-12T02:41:00.749Z,24.90
2018-05-12T02:43:31.740Z,25.40
2018-05-12T02:46:02.756Z,24.80
2018-05-12T02:48:33.722Z,25.73
2018-05-12T02:51:04.724Z,25.10
2018-05-12T02:53:35.712Z,26.23
2018-05-12T02:56:06.671Z,26.23
2018-05-12T02:58:37.674Z,26.00
2018-05-12T03:01:08.630Z,27.50
2018-05-12T03:03:39.606Z,26.67
2018-05-12T03:06:10.617Z,26.50
2018-05-12T03:08:41.594Z,28.50
2018-05-12T03:11:12.566Z,26.60
2018-05-12T03:13:43.598Z,28.33
2018-05-12T03:16:14.558Z,27.90
2018-05-12T03:18:45.589Z,25.97
2018-05-12T03:21:16.601Z,28.97
2018-05-12T03:23:47.599Z,27.67
2018-05-12T03:26:18.576Z,29.33
2018-05-12T03:28:49.618Z,29.40
2018-05-12T03:31:20.596Z,29.00
2018-05-12T03:33:51.574Z,29.63
2018-05-12T03:36:22.608Z,30.17
2018-05-12T03:38:53.586Z,31.37
2018-05-12T03:41:24.607Z,29.83
2018-05-12T03:43:55.597Z,28.17
2018-05-12T03:46:26.598Z,29.37
2018-05-12T03:48:57.558Z,28.30
2018-05-12T03:51:28.574Z,28.43
2018-05-12T03:53:59.611Z,29.53
2018-05-12T03:56:30.596Z,26.73
2018-05-12T03:59:01.576Z,25.53
2018-05-12T04:01:32.611Z,26.30
2018-05-12T04:04:03.638Z,27.47
2018-05-12T04:06:46.974Z,25.53
2018-05-12T04:09:30.216Z,24.77
2018-05-12T04:12:13.482Z,24.93
2018-05-12T04:14:44.485Z,24.40
2018-05-12T04:17:15.487Z,23.47
2018-05-12T04:19:46.488Z,25.37
2018-05-12T04:22:17.505Z,24.40
2018-05-12T04:24:48.495Z,22.37
2018-05-12T04:27:19.450Z,22.87
2018-05-12T04:29:50.433Z,23.53
2018-05-12T04:32:21.428Z,22.30
2018-05-12T04:34:52.420Z,21.67
2018-05-12T04:37:23.398Z,23.73
2018-05-12T04:39:54.378Z,22.43
2018-05-12T04:42:25.358Z,22.33
2018-05-12T04:44:56.347Z,22.33
2018-05-12T04:47:27.334Z,22.13
2018-05-12T04:49:58.293Z,22.77
2018-05-12T04:52:29.323Z,22.50
2018-05-12T04:55:00.323Z,22.30
2018-05-12T04:57:31.274Z,23.90
2018-05-12T05:00:02.331Z,22.07
2018-05-12T05:02:33.316Z,23.13
2018-05-12T05:05:04.293Z,22.87
2018-05-12T05:07:35.252Z,22.30
2018-05-12T05:10:06.223Z,23.47
2018-05-12T05:12:37.194Z,22.57
2018-05-12T05:15:08.199Z,23.90
2018-05-12T05:17:39.196Z,22.43
2018-05-12T05:20:10.174Z,21.93
2018-05-12T05:22:41.184Z,21.47
2018-05-12T05:25:12.151Z,21.60
2018-05-12T05:27:43.138Z,22.17
2018-05-12T05:30:14.148Z,22.60
2018-05-12T05:32:45.176Z,22.60
2018-05-12T05:35:16.143Z,21.93
2018-05-12T05:37:47.147Z,23.20
2018-05-12T05:40:18.143Z,20.50
2018-05-12T05:42:49.145Z,22.43
2018-05-12T05:45:20.099Z,23.07
2018-05-12T05:47:51.120Z,23.13
2018-05-12T05:50:22.123Z,22.97
2018-05-12T05:52:53.147Z,20.70
2018-05-12T05:55:24.172Z,23.73
2018-05-12T05:57:55.172Z,25.20
2018-05-12T06:00:26.211Z,24.17
2018-05-12T06:02:57.175Z,24.70
2018-05-12T06:05:28.211Z,25.27
2018-05-12T06:07:59.198Z,23.67
2018-05-12T06:10:30.254Z,23.43
2018-05-12T06:13:01.214Z,23.37
2018-05-12T06:15:32.252Z,24.57
2018-05-12T06:18:03.333Z,22.80
2018-05-12T06:20:34.380Z,23.53
2018-05-12T06:23:05.375Z,23.97
2018-05-12T06:25:37.418Z,23.37
2018-05-12T06:28:08.429Z,22.23
2018-05-12T06:30:39.500Z,23.27
2018-05-12T06:33:10.478Z,22.57
2018-05-12T06:35:41.507Z,22.50
2018-05-12T06:38:12.508Z,24.93
2018-05-12T06:40:46.462Z,23.97
2018-05-12T06:43:17.404Z,23.63
2018-05-12T06:45:48.416Z,22.37
2018-05-12T06:48:19.526Z,23.27
2018-05-12T06:50:50.532Z,23.40
2018-05-12T06:53:21.568Z,22.53
2018-05-12T06:55:52.608Z,23.60
2018-05-12T06:58:25.642Z,22.87
2018-05-12T07:00:57.979Z,23.43
2018-05-12T07:03:29.094Z,21.70
2018-05-12T07:06:00.118Z,22.57
2018-05-12T07:08:31.134Z,22.87
2018-05-12T07:11:02.096Z,22.23
2018-05-12T07:13:33.133Z,22.67
2018-05-12T07:16:04.230Z,22.50
2018-05-12T07:18:35.238Z,22.27
2018-05-12T07:21:06.224Z,22.10
2018-05-12T07:23:37.296Z,21.95
2018-05-12T07:26:08.307Z,21.37
2018-05-12T07:28:39.336Z,24.10
2018-05-12T07:31:10.326Z,20.63
2018-05-12T07:33:41.354Z,21.70
2018-05-12T07:36:12.381Z,19.30
2018-05-12T07:38:43.458Z,19.35
2018-05-12T07:41:14.438Z,18.45
2018-05-12T07:43:45.561Z,19.27
2018-05-12T07:46:16.665Z,20.85
2018-05-12T07:48:47.662Z,17.37
2018-05-12T07:51:18.747Z,18.02
2018-05-12T07:53:49.758Z,18.58
2018-05-12T07:56:20.756Z,17.48
2018-05-12T07:58:51.782Z,16.37
2018-05-12T08:01:22.818Z,17.10
2018-05-12T08:03:53.856Z,17.05
2018-05-12T08:06:24.852Z,16.52
2018-05-12T08:08:55.896Z,17.62
2018-05-12T08:11:26.906Z,17.80
2018-05-12T08:13:57.960Z,17.12
2018-05-12T08:16:29.025Z,15.57
2018-05-12T08:19:00.049Z,14.87
2018-05-12T08:21:31.034Z,15.90
2018-05-12T08:24:02.068Z,17.33
2018-05-12T08:26:33.092Z,16.15
2018-05-12T08:29:04.115Z,15.98
2018-05-12T08:31:35.152Z,17.15
2018-05-12T08:34:06.118Z,16.50
2018-05-12T08:36:37.112Z,17.17
2018-05-12T08:39:08.128Z,16.67
2018-05-12T08:41:39.127Z,17.87
2018-05-12T08:44:10.143Z,17.48
2018-05-12T08:46:41.120Z,17.95
2018-05-12T08:49:12.146Z,17.05
2018-05-12T08:51:43.108Z,18.02
2018-05-12T08:54:14.172Z,18.90
2018-05-12T08:56:45.223Z,16.85
2018-05-12T08:59:16.293Z,16.00
2018-05-12T09:01:47.265Z,16.95
2018-05-12T09:04:18.310Z,17.62
2018-05-12T09:06:49.421Z,16.75
2018-05-12T09:09:20.504Z,14.55
2018-05-12T09:11:51.547Z,13.43
2018-05-12T09:14:22.536Z,14.43
2018-05-12T09:16:53.637Z,12.37
2018-05-12T09:19:24.724Z,12.52
2018-05-12T09:21:55.695Z,15.95
2018-05-12T09:24:26.703Z,14.43
2018-05-12T09:26:57.788Z,16.20
2018-05-12T09:29:28.824Z,17.60
2018-05-12T09:31:59.862Z,17.50
2018-05-12T09:34:30.848Z,16.27
2018-05-12T09:37:01.929Z,16.80
2018-05-12T09:39:32.960Z,14.13
2018-05-12T09:42:03.973Z,13.35
2018-05-12T09:44:35.024Z,15.77
2018-05-12T09:47:06.010Z,14.75
2018-05-12T09:49:36.985Z,13.38
2018-05-12T09:52:07.998Z,14.40
2018-05-12T09:54:39.015Z,14.35
2018-05-12T09:57:09.994Z,14.57
2018-05-12T09:59:41.011Z,15.60
2018-05-12T10:02:12.015Z,16.75
2018-05-12T10:04:42.987Z,18.02
2018-05-12T10:07:14.007Z,14.52
2018-05-12T10:09:45.058Z,15.80
2018-05-12T10:12:16.008Z,16.02
2018-05-12T10:14:46.990Z,15.63
2018-05-12T10:17:18.047Z,18.70
2018-05-12T10:19:49.034Z,14.52
2018-05-12T10:22:20.044Z,17.30
2018-05-12T10:24:51.034Z,14.75
2018-05-12T10:27:22.118Z,14.40
2018-05-12T10:29:53.116Z,15.00
2018-05-12T10:32:24.151Z,13.15
2018-05-12T10:34:55.154Z,9.25
2018-05-12T10:37:26.189Z,5.93
2018-05-12T10:39:57.236Z,7.65
2018-05-12T10:42:28.236Z,8.52
2018-05-12T10:44:59.321Z,8.23
2018-05-12T10:47:30.333Z,9.88
2018-05-12T10:50:01.377Z,6.45
2018-05-12T10:52:32.365Z,10.07
2018-05-12T10:55:03.414Z,9.50
2018-05-12T10:57:34.426Z,7.95
2018-05-12T11:00:05.471Z,10.00
2018-05-12T11:02:36.441Z,7.20
2018-05-12T11:05:07.493Z,6.72
2018-05-12T11:07:38.469Z,7.37
2018-05-12T11:10:09.545Z,5.93
2018-05-12T11:12:40.688Z,5.23
2018-05-12T11:15:11.681Z,5.63
2018-05-12T11:17:42.771Z,5.20
2018-05-12T11:20:13.836Z,6.60
2018-05-12T11:22:44.880Z,7.30
2018-05-12T11:25:15.862Z,6.40
2018-05-12T11:27:46.899Z,6.47
2018-05-12T11:30:17.944Z,6.30
2018-05-12T11:32:48.934Z,5.90
2018-05-12T11:35:19.949Z,5.70
2018-05-12T11:37:50.982Z,7.30
2018-05-12T11:40:21.967Z,6.93
2018-05-12T11:42:53.300Z,7.47
2018-05-12T11:45:24.388Z,7.63
2018-05-12T11:47:55.428Z,8.80
2018-05-12T11:50:26.434Z,8.53
2018-05-12T11:52:57.474Z,7.73
2018-05-12T11:55:28.492Z,7.97
2018-05-12T11:57:59.499Z,8.10
2018-05-12T12:00:30.487Z,16.00
2018-05-12T12:03:04.404Z,8.67
2018-05-12T12:05:35.399Z,8.47
2018-05-12T12:08:06.399Z,8.77
2018-05-12T12:10:37.397Z,8.50
2018-05-12T12:13:08.412Z,8.57
2018-05-12T12:15:39.384Z,9.63
2018-05-12T12:18:10.484Z,9.50
2018-05-12T12:20:41.499Z,8.13
2018-05-12T12:23:12.532Z,7.87
2018-05-12T12:25:43.529Z,7.23
2018-05-12T12:28:14.594Z,7.87
2018-05-12T12:30:52.736Z,7.87
2018-05-12T12:33:23.809Z,9.30
2018-05-12T12:35:54.791Z,8.87
2018-05-12T12:38:25.873Z,8.13
2018-05-12T12:40:56.905Z,7.63
2018-05-12T12:43:27.902Z,7.57
2018-05-12T12:45:58.906Z,7.00
2018-05-12T12:48:30.006Z,6.93
2018-05-12T12:51:01.100Z,6.40
2018-05-12T12:53:32.150Z,8.07
2018-05-12T12:56:03.158Z,7.43
2018-05-12T12:58:34.167Z,7.03
2018-05-12T13:01:05.189Z,7.03
2018-05-12T13:03:36.344Z,6.23
2018-05-12T13:06:07.332Z,5.50
2018-05-12T13:08:38.372Z,6.07
2018-05-12T13:11:09.415Z,6.03
2018-05-12T13:13:40.402Z,6.13
2018-05-12T13:16:11.406Z,5.70
2018-05-12T13:18:42.451Z,5.83
2018-05-12T13:21:13.418Z,6.03
2018-05-12T13:23:44.429Z,6.47
2018-05-12T13:26:15.467Z,6.00
2018-05-12T13:28:46.493Z,5.37
2018-05-12T13:31:17.539Z,5.70
2018-05-12T13:33:48.514Z,5.53
2018-05-12T13:36:19.499Z,4.83
2018-05-12T13:38:50.518Z,4.33
2018-05-12T13:41:21.556Z,5.50
2018-05-12T13:43:52.561Z,4.70
2018-05-12T13:46:23.620Z,4.17
2018-05-12T13:48:54.624Z,4.50
2018-05-12T13:51:25.625Z,4.30
2018-05-12T13:53:56.653Z,4.50
2018-05-12T13:56:27.712Z,3.77
2018-05-12T13:58:58.662Z,4.00
2018-05-12T14:01:29.680Z,4.70
2018-05-12T14:04:00.713Z,4.00
2018-05-12T14:06:31.733Z,3.83
2018-05-12T14:09:02.758Z,3.63
2018-05-12T14:11:33.740Z,3.53
2018-05-12T14:14:04.731Z,3.70
2018-05-12T14:16:35.689Z,3.90
2018-05-12T14:19:06.863Z,4.20
2018-05-12T14:21:37.730Z,3.90
2018-05-12T14:24:08.763Z,3.50
2018-05-12T14:26:39.815Z,3.47
2018-05-12T14:29:10.813Z,3.33
2018-05-12T14:31:41.934Z,3.60
2018-05-12T14:34:12.979Z,4.27
2018-05-12T14:36:43.993Z,3.73
2018-05-12T14:39:14.995Z,4.00
2018-05-12T14:41:45.996Z,4.27
2018-05-12T14:44:16.942Z,4.13
2018-05-12T14:46:47.968Z,3.87
2018-05-12T14:49:18.960Z,4.03
2018-05-12T14:51:50.010Z,4.10
2018-05-12T14:54:21.002Z,3.30
2018-05-12T14:56:52.029Z,3.10
2018-05-12T14:59:23.056Z,3.80
2018-05-12T15:01:54.065Z,3.57
2018-05-12T15:04:25.063Z,3.97
2018-05-12T15:06:56.041Z,3.47
2018-05-12T15:09:27.043Z,3.60
2018-05-12T15:11:58.021Z,3.40
2018-05-12T15:14:29.032Z,3.23
2018-05-12T15:17:00.033Z,3.00
2018-05-12T15:19:31.085Z,3.50
2018-05-12T15:22:02.096Z,3.50
2018-05-12T15:24:33.061Z,3.10
2018-05-12T15:27:04.072Z,3.37
2018-05-12T15:29:35.104Z,3.00
2018-05-12T15:32:06.142Z,3.43
2018-05-12T15:34:37.127Z,3.60
2018-05-12T15:37:08.171Z,3.30
2018-05-12T15:39:39.154Z,3.53
2018-05-12T15:42:10.186Z,3.83
2018-05-12T15:44:41.158Z,3.50
2018-05-12T15:47:12.165Z,3.40
2018-05-12T15:49:43.146Z,3.63
2018-05-12T15:52:14.192Z,3.13
2018-05-12T15:54:45.180Z,3.70
2018-05-12T15:57:16.233Z,3.80
2018-05-12T15:59:47.230Z,3.77
2018-05-12T16:02:18.234Z,3.50
2018-05-12T16:04:49.205Z,3.50
2018-05-12T16:07:20.208Z,3.10
2018-05-12T16:09:51.245Z,3.73
2018-05-12T16:12:23.257Z,3.33
2018-05-12T16:14:54.205Z,3.40
2018-05-12T16:17:25.272Z,3.90
2018-05-12T16:19:56.294Z,3.23
2018-05-12T16:22:27.300Z,3.37
2018-05-12T16:24:58.325Z,4.10
2018-05-12T16:27:29.324Z,3.90
2018-05-12T16:30:00.355Z,3.60
2018-05-12T16:32:31.350Z,3.50
2018-05-12T16:35:02.372Z,3.53
2018-05-12T16:37:33.397Z,3.53
2018-05-12T16:40:04.453Z,3.40
2018-05-12T16:42:35.502Z,3.75
2018-05-12T16:45:09.301Z,3.20
2018-05-12T16:47:40.335Z,3.50
2018-05-12T16:50:11.347Z,3.67
2018-05-12T16:52:42.403Z,4.53
2018-05-12T16:55:13.432Z,4.50
2018-05-12T16:57:44.496Z,4.90
2018-05-12T17:00:15.498Z,4.67
2018-05-12T17:02:46.762Z,5.97
2018-05-12T17:05:17.771Z,6.00
2018-05-12T17:07:48.823Z,6.50
2018-05-12T17:10:19.867Z,6.07
2018-05-12T17:12:50.888Z,6.30
2018-05-12T17:15:21.935Z,6.33
2018-05-12T17:17:52.945Z,6.43
2018-05-12T17:20:23.942Z,6.50
2018-05-12T17:22:54.949Z,6.03
2018-05-12T17:25:25.951Z,6.00
2018-05-12T17:27:56.998Z,5.50
2018-05-12T17:30:28.015Z,5.23
2018-05-12T17:32:59.042Z,4.93
2018-05-12T17:35:30.048Z,5.23
2018-05-12T17:38:01.124Z,4.83
2018-05-12T17:40:32.120Z,5.07
2018-05-12T17:43:03.135Z,4.70
2018-05-12T17:45:34.137Z,4.70
2018-05-12T17:48:05.156Z,4.70
2018-05-12T17:50:36.197Z,4.70
2018-05-12T17:53:07.192Z,4.77
2018-05-12T17:55:38.256Z,4.80
2018-05-12T17:58:09.290Z,4.00
2018-05-12T18:00:40.314Z,4.57
2018-05-12T18:03:11.372Z,4.57
2018-05-12T18:05:42.363Z,4.80
2018-05-12T18:08:13.419Z,4.50
2018-05-12T18:10:44.471Z,4.70
2018-05-12T18:13:15.522Z,4.73
2018-05-12T18:15:46.518Z,5.10
2018-05-12T18:18:17.538Z,4.43
2018-05-12T18:20:48.518Z,4.67
2018-05-12T18:23:19.580Z,4.97
2018-05-12T18:25:50.591Z,4.90
2018-05-12T18:28:21.582Z,4.67
2018-05-12T18:30:52.551Z,5.00
2018-05-12T18:33:23.586Z,5.37
2018-05-12T18:35:54.610Z,6.03
2018-05-12T18:38:25.627Z,5.80
2018-05-12T18:40:56.668Z,5.43
2018-05-12T18:43:27.852Z,5.37
2018-05-12T18:45:58.828Z,5.90
2018-05-12T18:48:29.834Z,6.40
2018-05-12T18:51:00.839Z,6.63
2018-05-12T18:53:31.856Z,6.60
2018-05-12T18:56:02.858Z,6.63
2018-05-12T18:58:33.886Z,6.93
2018-05-12T19:01:04.863Z,7.10
2018-05-12T19:03:35.892Z,8.07
2018-05-12T19:06:06.881Z,8.03
2018-05-12T19:08:37.896Z,6.57
2018-05-12T19:11:08.893Z,7.47
2018-05-12T19:13:39.918Z,7.13
2018-05-12T19:16:10.942Z,8.13
2018-05-12T19:18:41.938Z,8.03
2018-05-12T19:21:12.931Z,7.63
2018-05-12T19:23:44.014Z,7.30
2018-05-12T19:26:15.042Z,7.23
2018-05-12T19:28:46.042Z,7.03
2018-05-12T19:31:17.083Z,6.53
2018-05-12T19:33:48.100Z,7.17
2018-05-12T19:36:19.111Z,6.40
2018-05-12T19:38:50.130Z,6.80
2018-05-12T19:41:21.224Z,6.73
2018-05-12T19:43:52.217Z,6.87
2018-05-12T19:46:23.199Z,8.03
2018-05-12T19:48:55.470Z,6.73
2018-05-12T19:51:26.493Z,6.47
2018-05-12T19:53:57.579Z,6.50
2018-05-12T19:56:28.682Z,6.37
2018-05-12T19:58:59.762Z,7.37
2018-05-12T20:01:30.840Z,7.37
2018-05-12T20:04:02.080Z,7.27
2018-05-12T20:06:34.153Z,7.13
2018-05-12T20:09:06.053Z,8.03
2018-05-12T20:11:37.133Z,7.57
2018-05-12T20:14:08.150Z,7.73
2018-05-12T20:16:39.167Z,8.20
2018-05-12T20:19:10.148Z,8.40
2018-05-12T20:21:41.139Z,8.67
2018-05-12T20:24:12.142Z,8.73
2018-05-12T20:26:43.095Z,8.27
2018-05-12T20:29:14.143Z,8.77
2018-05-12T20:31:45.162Z,8.97
2018-05-12T20:34:16.152Z,8.47
2018-05-12T20:36:47.198Z,8.83
2018-05-12T20:39:18.167Z,8.20
2018-05-12T20:41:49.194Z,8.30
2018-05-12T20:44:20.157Z,7.63
2018-05-12T20:46:51.175Z,6.93
2018-05-12T20:49:22.224Z,7.97
2018-05-12T20:51:53.209Z,7.10
2018-05-12T20:54:24.218Z,7.40
2018-05-12T20:56:55.230Z,7.00
2018-05-12T20:59:26.247Z,6.60
2018-05-12T21:01:57.210Z,6.80
2018-05-12T21:04:28.235Z,6.30
2018-05-12T21:06:59.240Z,6.23
2018-05-12T21:09:30.241Z,6.40
2018-05-12T21:12:01.232Z,6.47
2018-05-12T21:14:32.225Z,6.20
2018-05-12T21:17:03.233Z,7.60
2018-05-12T21:19:34.287Z,6.50
2018-05-12T21:22:05.324Z,5.87
2018-05-12T21:24:36.348Z,6.43
2018-05-12T21:27:07.318Z,7.10
2018-05-12T21:29:38.323Z,6.83
2018-05-12T21:32:09.306Z,6.77
2018-05-12T21:34:40.308Z,6.57
2018-05-12T21:37:11.258Z,6.70
2018-05-12T21:39:42.288Z,6.40
2018-05-12T21:42:13.256Z,6.60
2018-05-12T21:44:44.292Z,6.57
2018-05-12T21:47:15.247Z,6.70
2018-05-12T21:49:46.254Z,6.27
2018-05-12T21:52:17.214Z,6.63
2018-05-12T21:54:48.250Z,6.60
2018-05-12T21:57:19.191Z,6.47
2018-05-12T21:59:50.204Z,7.00
2018-05-12T22:02:21.162Z,6.47
2018-05-12T22:04:52.175Z,6.03
2018-05-12T22:07:23.186Z,6.27
2018-05-12T22:09:54.176Z,6.83
2018-05-12T22:12:25.159Z,6.73
2018-05-12T22:14:56.115Z,6.70
2018-05-12T22:17:27.124Z,6.90
2018-05-12T22:19:58.098Z,6.73
2018-05-12T22:22:29.136Z,6.53
2018-05-12T22:25:00.127Z,6.63
2018-05-12T22:27:31.128Z,7.03
2018-05-12T22:30:02.164Z,6.43
2018-05-12T22:32:33.180Z,6.70
2018-05-12T22:35:04.200Z,6.43
2018-05-12T22:37:35.201Z,6.23
2018-05-12T22:40:06.236Z,6.00
2018-05-12T22:42:37.219Z,5.50
2018-05-12T22:45:08.214Z,5.63
2018-05-12T22:47:39.212Z,5.90
2018-05-12T22:50:10.209Z,6.03
2018-05-12T22:52:41.217Z,6.60
2018-05-12T22:55:12.237Z,5.87
2018-05-12T22:57:43.182Z,6.53
2018-05-12T23:00:30.398Z,6.13
2018-05-12T23:03:01.421Z,5.97
2018-05-12T23:05:32.452Z,6.37
2018-05-12T23:08:03.456Z,6.13
2018-05-12T23:10:34.474Z,6.63
2018-05-12T23:13:05.462Z,7.70
2018-05-12T23:15:36.451Z,6.20
2018-05-12T23:18:07.422Z,6.43
2018-05-12T23:20:38.408Z,6.90
2018-05-12T23:23:09.412Z,6.67
2018-05-12T23:25:40.369Z,7.30
2018-05-12T23:28:11.357Z,7.40
2018-05-12T23:30:42.366Z,7.87
2018-05-12T23:33:13.355Z,7.20
2018-05-12T23:35:44.406Z,7.80
2018-05-12T23:38:15.363Z,8.50
2018-05-12T23:40:46.335Z,8.73
2018-05-12T23:43:17.314Z,8.33
2018-05-12T23:45:48.290Z,9.50
2018-05-12T23:48:19.336Z,8.77
2018-05-12T23:50:50.290Z,8.10
2018-05-12T23:53:21.303Z,8.07
2018-05-12T23:55:52.294Z,9.00
2018-05-12T23:58:23.330Z,9.03
